createdAt,value
2022-10-13T00:00:05.924Z,15.60
2022-10-13T00:02:36.480Z,15.70
2022-10-13T00:05:07.027Z,15.70
2022-10-13T00:07:37.381Z,15.70
2022-10-13T00:10:07.978Z,15.80
2022-10-13T00:12:42.197Z,15.80
2022-10-13T00:15:13.249Z,15.90
2022-10-13T00:17:43.874Z,16.00
2022-10-13T00:20:14.800Z,16.00
2022-10-13T00:22:45.545Z,16.10
2022-10-13T00:25:16.307Z,16.10
2022-10-13T00:27:46.728Z,16.10
2022-10-13T00:30:17.187Z,16.10
2022-10-13T00:32:47.648Z,16.00
2022-10-13T00:35:17.939Z,16.00
2022-10-13T00:37:48.156Z,16.00
2022-10-13T00:40:18.369Z,16.00
2022-10-13T00:42:48.773Z,16.00
2022-10-13T00:45:31.305Z,16.00
2022-10-13T00:48:04.237Z,16.00
2022-10-13T00:50:42.010Z,16.00
2022-10-13T00:53:14.068Z,16.20
2022-10-13T00:55:46.531Z,16.20
2022-10-13T00:58:21.617Z,16.30
2022-10-13T01:00:54.424Z,16.30
2022-10-13T01:03:25.879Z,16.30
2022-10-13T01:06:00.623Z,16.40
2022-10-13T01:08:38.177Z,16.40
2022-10-13T01:11:24.430Z,16.50
2022-10-13T01:14:32.085Z,16.80
2022-10-13T01:17:28.461Z,17.10
2022-10-13T01:20:19.469Z,17.40
2022-10-13T01:23:05.685Z,17.50
2022-10-13T01:25:36.440Z,17.50
2022-10-13T01:28:30.846Z,17.50
2022-10-13T01:31:43.888Z,17.60
2022-10-13T01:34:35.620Z,17.70
2022-10-13T01:37:12.170Z,17.70
2022-10-13T01:39:48.474Z,17.70
2022-10-13T01:42:24.711Z,17.80
2022-10-13T01:45:01.058Z,17.90
2022-10-13T01:47:34.617Z,18.10
2022-10-13T01:50:06.071Z,18.30
2022-10-13T01:52:40.307Z,18.50
2022-10-13T01:55:15.005Z,18.90
2022-10-13T01:57:47.157Z,19.20
2022-10-13T02:00:22.533Z,19.30
2022-10-13T02:03:08.378Z,19.20
2022-10-13T02:06:05.520Z,19.20
2022-10-13T02:08:57.357Z,19.20
2022-10-13T02:11:27.990Z,19.10
2022-10-13T02:14:11.844Z,18.90
2022-10-13T02:16:46.157Z,18.80
2022-10-13T02:19:19.284Z,18.70
2022-10-13T02:21:51.052Z,18.60
2022-10-13T02:24:21.627Z,18.40
2022-10-13T02:27:10.589Z,18.30
2022-10-13T02:30:03.494Z,18.20
2022-10-13T02:32:34.161Z,18.10
2022-10-13T02:35:08.016Z,18.00
2022-10-13T02:37:39.918Z,17.80
2022-10-13T02:40:10.990Z,17.70
2022-10-13T02:42:41.792Z,17.60
2022-10-13T02:45:12.993Z,17.50
2022-10-13T02:47:44.247Z,17.50
2022-10-13T02:50:14.452Z,17.40
2022-10-13T02:52:44.869Z,17.40
2022-10-13T02:55:15.533Z,17.40
2022-10-13T02:57:46.154Z,17.30
2022-10-13T03:00:19.642Z,17.30
2022-10-13T03:02:49.855Z,17.30
2022-10-13T03:05:20.106Z,17.30
2022-10-13T03:07:51.484Z,17.30
2022-10-13T03:10:21.802Z,17.30
2022-10-13T03:12:52.704Z,17.30
2022-10-13T03:15:24.354Z,17.30
2022-10-13T03:17:54.539Z,17.30
2022-10-13T03:20:25.197Z,17.40
2022-10-13T03:22:55.490Z,17.40
2022-10-13T03:25:25.628Z,17.50
2022-10-13T03:27:57.315Z,17.60
2022-10-13T03:30:28.088Z,17.70
2022-10-13T03:32:58.333Z,17.70
2022-10-13T03:35:29.095Z,17.70
2022-10-13T03:37:59.357Z,17.70
2022-10-13T03:40:30.160Z,17.70
2022-10-13T03:43:00.425Z,17.80
2022-10-13T03:45:32.985Z,17.90
2022-10-13T03:48:03.163Z,18.00
2022-10-13T03:50:34.709Z,18.10
2022-10-13T03:53:04.959Z,18.10
2022-10-13T03:55:36.467Z,18.10
2022-10-13T03:58:07.992Z,18.10
2022-10-13T04:00:41.863Z,18.10
2022-10-13T04:03:12.335Z,18.10
2022-10-13T04:05:43.476Z,18.00
2022-10-13T04:08:14.536Z,18.10
2022-10-13T04:10:45.026Z,18.20
2022-10-13T04:13:15.396Z,18.30
2022-10-13T04:15:45.986Z,18.20
2022-10-13T04:18:16.949Z,18.20
2022-10-13T04:20:47.635Z,18.10
2022-10-13T04:23:17.905Z,18.10
2022-10-13T04:25:48.473Z,18.10
2022-10-13T04:28:18.978Z,17.90
2022-10-13T04:30:49.717Z,17.90
2022-10-13T04:33:20.216Z,17.80
2022-10-13T04:35:51.780Z,17.70
2022-10-13T04:38:22.892Z,17.60
2022-10-13T04:40:53.549Z,17.60
2022-10-13T04:43:24.231Z,17.50
2022-10-13T04:45:54.496Z,17.60
2022-10-13T04:48:25.051Z,17.60
2022-10-13T04:51:06.327Z,17.60
2022-10-13T04:53:37.342Z,17.60
2022-10-13T04:56:11.699Z,17.60
2022-10-13T04:58:44.985Z,17.50
2022-10-13T05:01:22.157Z,17.40
2022-10-13T05:03:58.250Z,17.30
2022-10-13T05:06:48.591Z,17.20
2022-10-13T05:09:27.852Z,17.30
2022-10-13T05:11:59.567Z,17.20
2022-10-13T05:14:29.802Z,17.20
2022-10-13T05:16:59.978Z,17.30
2022-10-13T05:19:30.571Z,17.30
2022-10-13T05:22:00.905Z,17.40
2022-10-13T05:24:38.710Z,17.40
2022-10-13T05:27:13.975Z,17.40
2022-10-13T05:29:44.884Z,17.50
2022-10-13T05:32:15.044Z,17.50
2022-10-13T05:34:46.588Z,17.50
2022-10-13T05:37:19.172Z,17.40
2022-10-13T05:39:50.196Z,17.40
2022-10-13T05:42:20.563Z,17.40
2022-10-13T05:44:51.023Z,17.20
2022-10-13T05:47:21.209Z,17.20
2022-10-13T05:49:52.037Z,17.00
2022-10-13T05:52:22.739Z,17.00
2022-10-13T05:55:00.426Z,16.90
2022-10-13T05:57:37.883Z,16.90
2022-10-13T06:00:12.351Z,16.90
2022-10-13T06:03:09.410Z,16.80
2022-10-13T06:05:40.509Z,16.80
2022-10-13T06:08:11.743Z,16.80
2022-10-13T06:10:42.384Z,16.70
2022-10-13T06:13:13.444Z,16.70
2022-10-13T06:15:45.534Z,16.70
2022-10-13T06:18:15.817Z,16.70
2022-10-13T06:20:46.161Z,16.70
2022-10-13T06:23:16.351Z,16.60
2022-10-13T06:25:53.603Z,16.60
2022-10-13T06:28:24.313Z,16.50
2022-10-13T06:30:58.681Z,16.60
2022-10-13T06:33:28.845Z,16.50
2022-10-13T06:35:59.105Z,16.50
2022-10-13T06:38:29.352Z,16.50
2022-10-13T06:41:06.277Z,16.50
2022-10-13T06:43:40.314Z,16.50
2022-10-13T06:46:12.018Z,16.50
2022-10-13T06:48:42.604Z,16.50
2022-10-13T06:51:14.603Z,16.50
2022-10-13T06:53:44.829Z,16.50
2022-10-13T06:56:15.930Z,16.50
2022-10-13T06:58:48.162Z,16.50
2022-10-13T07:01:18.488Z,16.50
2022-10-13T07:03:51.757Z,16.50
2022-10-13T07:06:22.601Z,16.50
2022-10-13T07:08:52.823Z,16.50
2022-10-13T07:11:23.973Z,16.50
2022-10-13T07:13:56.136Z,16.50
2022-10-13T07:16:26.837Z,16.50
2022-10-13T07:18:57.087Z,16.50
2022-10-13T07:21:27.487Z,16.50
2022-10-13T07:23:58.025Z,16.50
2022-10-13T07:26:28.850Z,16.50
2022-10-13T07:28:59.051Z,16.60
2022-10-13T07:31:29.706Z,16.60
2022-10-13T07:34:02.333Z,16.50
2022-10-13T07:36:33.667Z,16.50
2022-10-13T07:39:05.318Z,16.50
2022-10-13T07:41:35.640Z,16.60
2022-10-13T07:44:06.023Z,16.50
2022-10-13T07:46:36.723Z,16.50
2022-10-13T07:49:06.864Z,16.50
2022-10-13T07:51:37.546Z,16.40
2022-10-13T07:54:07.682Z,16.40
2022-10-13T07:56:38.293Z,16.40
2022-10-13T07:59:09.522Z,16.40
2022-10-13T08:01:41.660Z,16.40
2022-10-13T08:04:11.926Z,16.30
2022-10-13T08:06:43.556Z,16.30
2022-10-13T08:09:14.614Z,16.20
2022-10-13T08:11:45.124Z,16.20
2022-10-13T08:14:18.419Z,16.20
2022-10-13T08:16:51.470Z,16.10
2022-10-13T08:19:24.408Z,16.10
2022-10-13T08:21:59.724Z,16.10
2022-10-13T08:24:31.139Z,16.00
2022-10-13T08:27:01.361Z,16.10
2022-10-13T08:29:32.290Z,16.00
2022-10-13T08:32:02.699Z,16.00
2022-10-13T08:34:32.995Z,16.00
2022-10-13T08:37:03.219Z,16.00
2022-10-13T08:39:34.152Z,16.00
2022-10-13T08:42:04.510Z,15.90
2022-10-13T08:47:50.081Z,15.90
2022-10-13T08:50:26.809Z,15.80
2022-10-13T08:52:56.618Z,15.80
2022-10-13T08:55:46.559Z,15.80
2022-10-13T08:58:23.460Z,15.80
2022-10-13T09:01:11.381Z,15.70
2022-10-13T09:04:25.837Z,15.70
2022-10-13T09:07:01.991Z,15.70
2022-10-13T09:09:32.195Z,15.70
2022-10-13T09:12:04.135Z,15.60
2022-10-13T09:14:40.403Z,15.60
2022-10-13T09:17:21.250Z,15.60
2022-10-13T09:20:22.445Z,15.60
2022-10-13T09:23:22.473Z,15.60
2022-10-13T09:25:55.750Z,15.50
2022-10-13T09:28:27.515Z,15.50
2022-10-13T09:31:16.133Z,15.50
2022-10-13T09:33:47.667Z,15.50
2022-10-13T09:36:18.744Z,15.50
2022-10-13T09:39:16.034Z,15.40
2022-10-13T09:41:47.394Z,15.40
2022-10-13T09:44:32.788Z,15.50
2022-10-13T09:47:06.203Z,15.50
2022-10-13T09:49:43.042Z,15.50
2022-10-13T09:52:16.709Z,15.40
2022-10-13T09:54:52.910Z,15.50
2022-10-13T09:57:47.506Z,15.40
2022-10-13T10:00:29.505Z,15.40
2022-10-13T10:03:08.982Z,15.40
2022-10-13T10:05:47.784Z,15.40
2022-10-13T10:09:01.593Z,15.40
2022-10-13T10:11:47.464Z,15.40
2022-10-13T10:14:30.506Z,15.40
2022-10-13T10:17:23.398Z,15.40
2022-10-13T10:20:08.978Z,15.40
2022-10-13T10:23:02.738Z,15.30
2022-10-13T10:25:35.738Z,15.30
2022-10-13T10:28:25.536Z,15.20
2022-10-13T10:31:27.809Z,15.20
2022-10-13T10:34:15.463Z,15.10
2022-10-13T10:36:55.516Z,15.10
2022-10-13T10:39:47.994Z,15.10
2022-10-13T10:42:41.886Z,15.10
2022-10-13T10:45:45.143Z,15.10
2022-10-13T10:48:33.039Z,15.10
2022-10-13T10:51:04.556Z,15.00
2022-10-13T10:53:45.260Z,15.00
2022-10-13T10:56:39.793Z,15.00
2022-10-13T10:59:42.263Z,15.00
2022-10-13T11:02:30.460Z,15.10
2022-10-13T11:05:06.092Z,15.10
2022-10-13T11:07:37.331Z,15.10
2022-10-13T11:10:24.155Z,15.10
2022-10-13T11:12:54.483Z,15.10
2022-10-13T11:15:42.957Z,15.20
2022-10-13T11:18:49.536Z,15.20
2022-10-13T11:21:19.963Z,15.20
2022-10-13T11:23:52.310Z,15.20
2022-10-13T11:26:28.804Z,15.20
2022-10-13T11:28:59.468Z,15.20
2022-10-13T11:31:36.133Z,15.10
2022-10-13T11:34:28.651Z,15.20
2022-10-13T11:37:02.048Z,15.20
2022-10-13T11:40:02.186Z,15.20
2022-10-13T11:42:45.471Z,15.20
2022-10-13T11:45:44.131Z,15.20
2022-10-13T11:48:32.637Z,15.10
2022-10-13T11:51:25.630Z,15.10
2022-10-13T11:54:14.725Z,15.20
2022-10-13T11:56:55.219Z,15.20
2022-10-13T11:59:39.179Z,15.20
2022-10-13T12:02:19.184Z,15.20
2022-10-13T12:05:23.422Z,15.20
2022-10-13T12:07:56.531Z,15.20
2022-10-13T12:10:36.132Z,15.20
2022-10-13T12:13:07.455Z,15.30
2022-10-13T12:15:45.531Z,15.30
2022-10-13T12:18:29.348Z,15.30
2022-10-13T12:21:03.015Z,15.30
2022-10-13T12:23:36.386Z,15.30
2022-10-13T12:26:07.472Z,15.30
2022-10-13T12:28:59.686Z,15.30
2022-10-13T12:31:32.903Z,15.30
2022-10-13T12:34:04.509Z,15.30
2022-10-13T12:36:36.866Z,15.30
2022-10-13T12:39:26.880Z,15.30
2022-10-13T12:41:58.692Z,15.30
2022-10-13T12:44:31.312Z,15.30
2022-10-13T12:47:05.811Z,15.30
2022-10-13T12:49:38.387Z,15.30
2022-10-13T12:52:12.628Z,15.20
2022-10-13T12:54:53.825Z,15.20
2022-10-13T12:57:28.767Z,15.20
2022-10-13T13:00:00.749Z,15.10
2022-10-13T13:02:35.675Z,15.10
2022-10-13T13:05:05.941Z,15.00
2022-10-13T13:07:39.576Z,15.00
2022-10-13T13:10:22.162Z,15.00
2022-10-13T13:12:54.261Z,14.80
2022-10-13T13:15:34.945Z,14.80
2022-10-13T13:18:31.709Z,14.80
2022-10-13T13:21:03.848Z,14.70
2022-10-13T13:23:37.665Z,14.70
2022-10-13T13:26:14.975Z,14.60
2022-10-13T13:28:50.059Z,14.60
2022-10-13T13:31:23.093Z,14.60
2022-10-13T13:33:54.210Z,14.60
2022-10-13T13:36:27.280Z,14.50
2022-10-13T13:38:57.779Z,14.50
2022-10-13T13:41:33.270Z,14.50
2022-10-13T13:44:03.635Z,14.40
2022-10-13T13:46:34.193Z,14.40
2022-10-13T13:49:04.558Z,14.40
2022-10-13T13:51:35.132Z,14.40
2022-10-13T13:54:06.567Z,14.40
2022-10-13T13:56:37.067Z,14.40
2022-10-13T13:59:07.416Z,14.40
2022-10-13T14:01:38.806Z,14.30
2022-10-13T14:04:09.005Z,14.40
2022-10-13T14:06:39.722Z,14.30
2022-10-13T14:09:09.870Z,14.30
2022-10-13T14:11:40.030Z,14.30
2022-10-13T14:14:10.232Z,14.30
2022-10-13T14:16:40.450Z,14.30
2022-10-13T14:19:13.219Z,14.30
2022-10-13T14:21:43.733Z,14.30
2022-10-13T14:24:14.396Z,14.30
2022-10-13T14:26:44.495Z,14.30
2022-10-13T14:29:16.820Z,14.30
2022-10-13T14:31:47.084Z,14.30
2022-10-13T14:34:17.389Z,14.30
2022-10-13T14:36:47.677Z,14.20
2022-10-13T14:39:18.255Z,14.20
2022-10-13T14:41:50.540Z,14.20
2022-10-13T14:44:21.217Z,14.20
2022-10-13T14:46:51.863Z,14.20
2022-10-13T14:49:23.327Z,14.20
2022-10-13T14:51:55.134Z,14.20
2022-10-13T14:54:27.086Z,14.20
2022-10-13T14:56:58.202Z,14.20
2022-10-13T14:59:28.355Z,14.20
2022-10-13T15:01:59.954Z,14.20
2022-10-13T15:04:31.951Z,14.20
2022-10-13T15:07:02.614Z,14.20
2022-10-13T15:09:45.167Z,14.20
2022-10-13T15:12:23.188Z,14.10
2022-10-13T15:14:53.697Z,14.10
2022-10-13T15:17:24.026Z,14.10
2022-10-13T15:19:54.163Z,14.10
2022-10-13T15:22:24.577Z,14.10
2022-10-13T15:24:54.958Z,14.10
2022-10-13T15:27:25.416Z,14.10
2022-10-13T15:29:57.431Z,14.10
2022-10-13T15:32:28.090Z,14.10
2022-10-13T15:34:58.972Z,14.10
2022-10-13T15:37:29.151Z,14.10
2022-10-13T15:39:59.372Z,14.10
2022-10-13T15:42:29.814Z,14.10
2022-10-13T15:45:15.038Z,14.10
2022-10-13T15:47:45.310Z,14.10
2022-10-13T15:50:16.739Z,14.10
2022-10-13T15:52:47.507Z,14.10
2022-10-13T15:55:18.135Z,14.20
2022-10-13T15:57:49.064Z,14.20
2022-10-13T16:00:21.065Z,14.20
2022-10-13T16:02:54.858Z,14.20
2022-10-13T16:05:25.601Z,14.20
2022-10-13T16:07:55.696Z,14.20
2022-10-13T16:10:26.257Z,14.20
2022-10-13T16:12:57.730Z,14.20
2022-10-13T16:15:27.930Z,14.20
2022-10-13T16:17:58.078Z,14.20
2022-10-13T16:20:28.556Z,14.20
2022-10-13T16:22:59.842Z,14.20
2022-10-13T16:25:30.962Z,14.10
2022-10-13T16:28:02.412Z,14.10
2022-10-13T16:30:32.588Z,14.10
2022-10-13T16:33:02.688Z,14.20
2022-10-13T16:35:33.217Z,14.20
2022-10-13T16:38:04.610Z,14.10
2022-10-13T16:40:35.170Z,14.10
2022-10-13T16:43:05.685Z,14.10
2022-10-13T16:45:58.706Z,14.10
2022-10-13T16:48:27.477Z,14.10
2022-10-13T16:50:57.991Z,14.10
2022-10-13T16:53:28.148Z,14.00
2022-10-13T16:55:58.968Z,14.10
2022-10-13T16:58:29.242Z,14.00
2022-10-13T17:01:11.861Z,14.00
2022-10-13T17:03:45.334Z,14.00
2022-10-13T17:06:17.272Z,14.00
2022-10-13T17:08:48.179Z,14.00
2022-10-13T17:11:28.108Z,14.00
2022-10-13T17:14:02.467Z,14.00
2022-10-13T17:16:34.026Z,13.90
2022-10-13T17:19:04.800Z,13.90
2022-10-13T17:21:35.559Z,13.90
2022-10-13T17:24:06.232Z,13.90
2022-10-13T17:26:36.968Z,13.90
2022-10-13T17:29:07.424Z,13.90
2022-10-13T17:31:37.621Z,13.90
2022-10-13T17:34:08.166Z,13.90
2022-10-13T17:36:39.327Z,13.90
2022-10-13T17:39:11.934Z,13.90
2022-10-13T17:41:42.540Z,13.90
2022-10-13T17:44:13.429Z,13.90
2022-10-13T17:46:43.700Z,13.90
2022-10-13T17:49:15.529Z,13.90
2022-10-13T17:51:47.587Z,13.90
2022-10-13T17:54:19.196Z,13.90
2022-10-13T17:56:50.616Z,13.90
2022-10-13T17:59:21.635Z,13.90
2022-10-13T18:01:51.952Z,13.90
2022-10-13T18:04:23.933Z,13.90
2022-10-13T18:06:55.050Z,13.90
2022-10-13T18:09:26.156Z,13.90
2022-10-13T18:11:57.085Z,13.90
2022-10-13T18:14:28.399Z,13.90
2022-10-13T18:16:58.570Z,13.90
2022-10-13T18:19:29.130Z,13.80
2022-10-13T18:21:59.265Z,13.80
2022-10-13T18:24:29.638Z,13.80
2022-10-13T18:27:00.361Z,13.80
2022-10-13T18:29:30.747Z,13.80
2022-10-13T18:32:00.894Z,13.80
2022-10-13T18:34:31.266Z,13.80
2022-10-13T18:37:01.457Z,13.80
2022-10-13T18:39:33.776Z,13.80
2022-10-13T18:42:04.318Z,13.80
2022-10-13T18:44:34.488Z,13.80
2022-10-13T18:47:04.765Z,13.80
2022-10-13T18:49:35.155Z,13.80
2022-10-13T18:52:05.850Z,13.80
2022-10-13T18:54:36.062Z,13.80
2022-10-13T18:57:06.263Z,13.70
2022-10-13T18:59:40.666Z,13.70
2022-10-13T19:02:15.492Z,13.70
2022-10-13T19:04:46.112Z,13.70
2022-10-13T19:07:16.728Z,13.70
2022-10-13T19:09:47.463Z,13.70
2022-10-13T19:12:17.655Z,13.60
2022-10-13T19:14:47.860Z,13.60
2022-10-13T19:17:18.816Z,13.60
2022-10-13T19:19:51.238Z,13.60
2022-10-13T19:22:21.921Z,13.50
2022-10-13T19:24:52.071Z,13.50
2022-10-13T19:27:23.855Z,13.50
2022-10-13T19:29:58.258Z,13.40
2022-10-13T19:32:29.920Z,13.40
2022-10-13T19:35:01.557Z,13.40
2022-10-13T19:37:33.858Z,13.30
2022-10-13T19:40:04.254Z,13.30
2022-10-13T19:42:35.212Z,13.20
2022-10-13T19:45:09.420Z,13.20
2022-10-13T19:47:41.890Z,13.20
2022-10-13T19:50:12.867Z,13.20
2022-10-13T19:52:45.085Z,13.10
2022-10-13T19:55:15.692Z,13.00
2022-10-13T19:57:46.207Z,13.00
2022-10-13T20:00:17.427Z,13.00
2022-10-13T20:02:47.619Z,13.00
2022-10-13T20:05:20.869Z,13.00
2022-10-13T20:07:54.705Z,12.90
2022-10-13T20:10:25.468Z,12.90
2022-10-13T20:12:56.638Z,12.80
2022-10-13T20:15:26.958Z,12.80
2022-10-13T20:17:57.192Z,12.80
2022-10-13T20:20:27.380Z,12.80
2022-10-13T20:22:57.689Z,12.80
2022-10-13T20:25:28.002Z,12.80
2022-10-13T20:27:58.170Z,12.70
2022-10-13T20:30:28.360Z,12.70
2022-10-13T20:32:59.342Z,12.70
2022-10-13T20:35:29.801Z,12.70
2022-10-13T20:38:00.258Z,12.70
2022-10-13T20:40:30.717Z,12.60
2022-10-13T20:43:01.254Z,12.60
2022-10-13T20:45:31.754Z,12.50
2022-10-13T20:48:02.078Z,12.60
2022-10-13T20:50:32.280Z,12.60
2022-10-13T20:53:02.857Z,12.60
2022-10-13T20:55:35.981Z,12.60
2022-10-13T20:58:10.325Z,12.60
2022-10-13T21:00:47.088Z,12.60
2022-10-13T21:03:20.469Z,12.70
2022-10-13T21:05:52.583Z,12.70
2022-10-13T21:08:25.692Z,12.70
2022-10-13T21:10:56.413Z,12.70
2022-10-13T21:13:27.669Z,12.70
2022-10-13T21:15:58.287Z,12.70
2022-10-13T21:18:28.539Z,12.80
2022-10-13T21:21:03.949Z,12.90
2022-10-13T21:23:34.601Z,13.00
2022-10-13T21:26:10.581Z,12.90
2022-10-13T21:28:42.142Z,13.00
2022-10-13T21:31:15.374Z,13.00
2022-10-13T21:33:46.319Z,13.10
2022-10-13T21:36:18.326Z,13.20
2022-10-13T21:38:50.085Z,13.20
2022-10-13T21:41:20.265Z,13.20
2022-10-13T21:43:51.613Z,13.20
2022-10-13T21:46:30.882Z,13.30
2022-10-13T21:49:06.094Z,13.30
2022-10-13T21:51:39.629Z,13.40
2022-10-13T21:54:15.101Z,13.50
2022-10-13T21:56:45.580Z,13.60
2022-10-13T21:59:16.029Z,13.80
2022-10-13T22:01:46.854Z,13.90
2022-10-13T22:04:18.211Z,14.00
2022-10-13T22:06:48.887Z,13.90
2022-10-13T22:09:19.369Z,13.90
2022-10-13T22:11:51.819Z,13.90
2022-10-13T22:14:25.855Z,13.80
2022-10-13T22:16:56.298Z,13.90
2022-10-13T22:19:26.631Z,13.90
2022-10-13T22:21:56.802Z,14.00
2022-10-13T22:24:27.009Z,14.10
2022-10-13T22:26:57.936Z,14.30
2022-10-13T22:29:29.172Z,14.40
2022-10-13T22:32:01.680Z,14.50
2022-10-13T22:34:32.368Z,14.60
2022-10-13T22:37:02.944Z,14.70
2022-10-13T22:39:33.660Z,14.80
2022-10-13T22:42:04.237Z,14.90
2022-10-13T22:44:35.768Z,15.10
2022-10-13T22:47:06.119Z,15.20
2022-10-13T22:49:36.346Z,15.20
2022-10-13T22:52:06.702Z,15.20
2022-10-13T22:54:38.338Z,15.30
2022-10-13T22:57:08.627Z,15.40
2022-10-13T22:59:40.774Z,15.50
2022-10-13T23:02:11.207Z,15.50
2022-10-13T23:04:41.867Z,15.50
2022-10-13T23:07:12.576Z,15.50
2022-10-13T23:09:43.097Z,15.50
2022-10-13T23:12:13.683Z,15.50
2022-10-13T23:14:44.110Z,15.60
2022-10-13T23:17:14.393Z,15.50
2022-10-13T23:19:44.712Z,15.50
2022-10-13T23:22:15.348Z,15.50
2022-10-13T23:24:45.949Z,15.50
2022-10-13T23:27:16.592Z,15.40
2022-10-13T23:29:46.831Z,15.30
2022-10-13T23:32:17.007Z,15.30
2022-10-13T23:34:48.167Z,15.30
2022-10-13T23:37:19.068Z,15.40
2022-10-13T23:39:49.990Z,15.40
2022-10-13T23:42:20.218Z,15.50
2022-10-13T23:44:50.865Z,15.50
2022-10-13T23:47:22.379Z,15.70
2022-10-13T23:49:53.468Z,15.90
2022-10-13T23:52:23.697Z,16.00
2022-10-13T23:54:54.527Z,16.20
2022-10-13T23:57:24.718Z,16.40
2022-10-13T23:59:54.926Z,16.50
